Lavenham, United Kingdom
Current Conditions -  °F | °C
As of 12:08 PM on Wednesday 28 Jan 2015 (Local Time) from EGUW Reporting Station
Rain Showers Rain Showers  
Wind Chill: 38°   Ceiling: 1600
Heat Index: 46°   Visibility: 4mi
Dew Point: 41°   Wind: 28mph
Humidity: 81%   Direction: 260°W
Pressure: 29.44"   Gusts: 52mph
Location:  52.11°N, 0.8°E
Report Text: EGUW 281208Z 26024G45KT 6000 SHRA SQ BKN016CB 08/05 Q0997 WHT BECMG 9999 NSW SCT025 BLU
Loading
Personal Weather Stations






























Interactive Weather Map New forecast layout! Learn more

10-Day Weather Forecast

Advertisements
Track Severe Weather on mobile